sensor_id;sensor_type;location;lat;lon;timestamp;P1;durP1;ratioP1;P2;durP2;ratioP2
79268;SDS011;68714;48.586;7.772;2023-04-15T01:36:39;4.07;;;1.83;;
79268;SDS011;68714;48.586;7.772;2023-04-15T01:39:05;4.30;;;1.92;;
79268;SDS011;68714;48.586;7.772;2023-04-15T01:41:30;4.97;;;1.83;;
79268;SDS011;68714;48.586;7.772;2023-04-15T01:43:56;6.15;;;2.33;;
79268;SDS011;68714;48.586;7.772;2023-04-15T01:46:22;4.13;;;2.03;;
79268;SDS011;68714;48.586;7.772;2023-04-15T01:48:47;2.50;;;1.40;;
79268;SDS011;68714;48.586;7.772;2023-04-15T01:51:13;3.58;;;2.00;;
79268;SDS011;68714;48.586;7.772;2023-04-15T01:53:39;3.80;;;2.22;;
79268;SDS011;68714;48.586;7.772;2023-04-15T01:56:04;5.32;;;1.92;;
79268;SDS011;68714;48.586;7.772;2023-04-15T01:58:31;4.20;;;1.85;;
79268;SDS011;68714;48.586;7.772;2023-04-15T02:00:56;4.75;;;2.00;;
79268;SDS011;68714;48.586;7.772;2023-04-15T02:03:23;3.63;;;2.00;;
79268;SDS011;68714;48.586;7.772;2023-04-15T02:05:49;3.65;;;1.83;;
79268;SDS011;68714;48.586;7.772;2023-04-15T02:08:15;3.83;;;1.80;;
79268;SDS011;68714;48.586;7.772;2023-04-15T02:10:40;5.50;;;2.25;;
79268;SDS011;68714;48.586;7.772;2023-04-15T02:13:06;3.97;;;2.10;;
79268;SDS011;68714;48.586;7.772;2023-04-15T02:15:31;5.50;;;2.38;;
79268;SDS011;68714;48.586;7.772;2023-04-15T02:17:57;5.13;;;2.20;;
79268;SDS011;68714;48.586;7.772;2023-04-15T02:20:24;4.47;;;2.03;;
79268;SDS011;68714;48.586;7.772;2023-04-15T02:22:50;6.07;;;1.83;;
79268;SDS011;68714;48.586;7.772;2023-04-15T02:25:16;6.55;;;1.83;;
79268;SDS011;68714;48.586;7.772;2023-04-15T02:27:42;4.72;;;2.50;;
79268;SDS011;68714;48.586;7.772;2023-04-15T02:30:08;3.35;;;1.70;;
79268;SDS011;68714;48.586;7.772;2023-04-15T02:32:34;5.40;;;2.75;;
79268;SDS011;68714;48.586;7.772;2023-04-15T02:35:05;5.10;;;2.20;;
79268;SDS011;68714;48.586;7.772;2023-04-15T02:37:35;4.00;;;2.15;;
79268;SDS011;68714;48.586;7.772;2023-04-15T02:40:13;4.07;;;1.88;;
79268;SDS011;68714;48.586;7.772;2023-04-15T02:42:39;4.63;;;2.08;;
79268;SDS011;68714;48.586;7.772;2023-04-15T02:45:06;6.40;;;2.30;;
79268;SDS011;68714;48.586;7.772;2023-04-15T02:47:33;4.18;;;2.20;;
79268;SDS011;68714;48.586;7.772;2023-04-15T02:49:59;4.85;;;1.80;;
79268;SDS011;68714;48.586;7.772;2023-04-15T02:52:26;4.68;;;2.10;;
79268;SDS011;68714;48.586;7.772;2023-04-15T02:54:51;4.68;;;2.15;;
79268;SDS011;68714;48.586;7.772;2023-04-15T02:57:21;6.07;;;2.50;;
79268;SDS011;68714;48.586;7.772;2023-04-15T02:59:46;2.97;;;1.63;;
79268;SDS011;68714;48.586;7.772;2023-04-15T03:02:12;3.92;;;1.98;;
79268;SDS011;68714;48.586;7.772;2023-04-15T03:04:37;4.43;;;1.70;;
79268;SDS011;68714;48.586;7.772;2023-04-15T03:07:03;4.15;;;1.80;;
79268;SDS011;68714;48.586;7.772;2023-04-15T03:09:29;2.50;;;1.60;;
79268;SDS011;68714;48.586;7.772;2023-04-15T03:11:55;6.68;;;1.88;;
79268;SDS011;68714;48.586;7.772;2023-04-15T03:14:21;9.65;;;1.77;;
79268;SDS011;68714;48.586;7.772;2023-04-15T03:16:47;3.17;;;1.50;;
79268;SDS011;68714;48.586;7.772;2023-04-15T03:19:14;3.72;;;1.48;;
79268;SDS011;68714;48.586;7.772;2023-04-15T03:21:40;2.67;;;1.55;;
79268;SDS011;68714;48.586;7.772;2023-04-15T03:24:05;4.78;;;1.83;;
79268;SDS011;68714;48.586;7.772;2023-04-15T03:26:31;4.22;;;1.58;;
79268;SDS011;68714;48.586;7.772;2023-04-15T03:28:56;3.70;;;1.67;;
79268;SDS011;68714;48.586;7.772;2023-04-15T03:31:22;4.35;;;1.67;;
79268;SDS011;68714;48.586;7.772;2023-04-15T03:33:48;3.85;;;1.77;;
79268;SDS011;68714;48.586;7.772;2023-04-15T03:36:13;3.65;;;1.63;;
79268;SDS011;68714;48.586;7.772;2023-04-15T03:38:39;3.22;;;1.73;;
79268;SDS011;68714;48.586;7.772;2023-04-15T03:41:05;3.42;;;1.63;;
79268;SDS011;68714;48.586;7.772;2023-04-15T03:43:31;4.68;;;2.00;;
79268;SDS011;68714;48.586;7.772;2023-04-15T03:45:57;4.05;;;1.90;;
79268;SDS011;68714;48.586;7.772;2023-04-15T03:48:22;4.38;;;2.33;;
79268;SDS011;68714;48.586;7.772;2023-04-15T03:50:48;5.05;;;2.15;;
79268;SDS011;68714;48.586;7.772;2023-04-15T03:53:13;4.03;;;2.20;;
79268;SDS011;68714;48.586;7.772;2023-04-15T03:55:39;3.53;;;1.95;;
79268;SDS011;68714;48.586;7.772;2023-04-15T03:58:05;4.43;;;2.13;;
79268;SDS011;68714;48.586;7.772;2023-04-15T04:00:30;3.95;;;1.75;;
79268;SDS011;68714;48.586;7.772;2023-04-15T04:02:55;4.07;;;2.13;;
79268;SDS011;68714;48.586;7.772;2023-04-15T04:05:21;4.32;;;2.20;;
79268;SDS011;68714;48.586;7.772;2023-04-15T04:07:47;4.20;;;2.38;;
79268;SDS011;68714;48.586;7.772;2023-04-15T04:10:12;4.40;;;2.42;;
79268;SDS011;68714;48.586;7.772;2023-04-15T04:12:38;4.45;;;2.05;;
79268;SDS011;68714;48.586;7.772;2023-04-15T04:15:03;5.55;;;2.15;;
79268;SDS011;68714;48.586;7.772;2023-04-15T04:17:29;6.45;;;3.20;;
79268;SDS011;68714;48.586;7.772;2023-04-15T04:19:55;4.47;;;1.80;;
79268;SDS011;68714;48.586;7.772;2023-04-15T04:22:23;3.92;;;2.65;;
79268;SDS011;68714;48.586;7.772;2023-04-15T04:24:48;4.55;;;2.00;;
79268;SDS011;68714;48.586;7.772;2023-04-15T04:27:14;6.05;;;2.63;;
79268;SDS011;68714;48.586;7.772;2023-04-15T04:29:40;4.82;;;2.22;;
79268;SDS011;68714;48.586;7.772;2023-04-15T04:32:05;6.45;;;2.78;;
79268;SDS011;68714;48.586;7.772;2023-04-15T04:34:31;4.97;;;2.42;;
79268;SDS011;68714;48.586;7.772;2023-04-15T04:36:56;4.78;;;2.42;;
79268;SDS011;68714;48.586;7.772;2023-04-15T04:39:22;4.00;;;2.10;;
79268;SDS011;68714;48.586;7.772;2023-04-15T04:41:47;4.95;;;2.05;;
79268;SDS011;68714;48.586;7.772;2023-04-15T04:44:13;3.78;;;2.30;;
79268;SDS011;68714;48.586;7.772;2023-04-15T04:46:39;7.10;;;2.42;;
79268;SDS011;68714;48.586;7.772;2023-04-15T04:49:04;4.75;;;1.95;;
79268;SDS011;68714;48.586;7.772;2023-04-15T04:51:30;4.85;;;2.15;;
79268;SDS011;68714;48.586;7.772;2023-04-15T04:53:56;5.40;;;2.15;;
79268;SDS011;68714;48.586;7.772;2023-04-15T04:56:21;5.30;;;2.30;;
79268;SDS011;68714;48.586;7.772;2023-04-15T04:58:47;4.68;;;2.00;;
79268;SDS011;68714;48.586;7.772;2023-04-15T05:01:12;4.47;;;2.08;;
79268;SDS011;68714;48.586;7.772;2023-04-15T05:03:38;4.15;;;1.55;;
79268;SDS011;68714;48.586;7.772;2023-04-15T05:06:03;4.43;;;2.17;;
79268;SDS011;68714;48.586;7.772;2023-04-15T05:08:31;4.45;;;2.00;;
79268;SDS011;68714;48.586;7.772;2023-04-15T05:10:56;3.95;;;2.20;;
79268;SDS011;68714;48.586;7.772;2023-04-15T05:13:23;3.42;;;1.77;;
79268;SDS011;68714;48.586;7.772;2023-04-15T05:15:49;3.97;;;1.98;;
79268;SDS011;68714;48.586;7.772;2023-04-15T05:18:14;6.03;;;1.85;;
79268;SDS011;68714;48.586;7.772;2023-04-15T05:20:40;2.65;;;1.73;;
79268;SDS011;68714;48.586;7.772;2023-04-15T05:23:05;3.88;;;1.80;;
79268;SDS011;68714;48.586;7.772;2023-04-15T05:25:30;5.72;;;1.83;;
79268;SDS011;68714;48.586;7.772;2023-04-15T05:27:56;5.80;;;1.98;;
79268;SDS011;68714;48.586;7.772;2023-04-15T05:30:21;3.20;;;1.63;;
79268;SDS011;68714;48.586;7.772;2023-04-15T05:32:47;5.05;;;2.33;;
79268;SDS011;68714;48.586;7.772;2023-04-15T05:35:12;3.25;;;2.00;;
79268;SDS011;68714;48.586;7.772;2023-04-15T05:37:37;5.72;;;2.70;;
79268;SDS011;68714;48.586;7.772;2023-04-15T05:40:03;5.82;;;1.40;;
79268;SDS011;68714;48.586;7.772;2023-04-15T05:42:29;3.15;;;1.60;;
79268;SDS011;68714;48.586;7.772;2023-04-15T05:44:55;4.88;;;1.52;;
79268;SDS011;68714;48.586;7.772;2023-04-15T05:47:20;4.65;;;1.70;;
79268;SDS011;68714;48.586;7.772;2023-04-15T05:49:46;3.05;;;1.60;;
79268;SDS011;68714;48.586;7.772;2023-04-15T05:52:11;5.95;;;2.00;;
79268;SDS011;68714;48.586;7.772;2023-04-15T05:54:36;3.17;;;1.55;;
79268;SDS011;68714;48.586;7.772;2023-04-15T05:57:02;6.85;;;1.80;;
79268;SDS011;68714;48.586;7.772;2023-04-15T05:59:28;3.10;;;1.90;;
79268;SDS011;68714;48.586;7.772;2023-04-15T06:01:53;4.45;;;2.05;;
79268;SDS011;68714;48.586;7.772;2023-04-15T06:04:19;5.93;;;2.15;;
79268;SDS011;68714;48.586;7.772;2023-04-15T06:06:44;3.70;;;1.92;;
79268;SDS011;68714;48.586;7.772;2023-04-15T06:09:10;3.78;;;2.03;;
79268;SDS011;68714;48.586;7.772;2023-04-15T06:11:35;4.38;;;1.63;;
79268;SDS011;68714;48.586;7.772;2023-04-15T06:14:01;2.90;;;1.55;;
79268;SDS011;68714;48.586;7.772;2023-04-15T06:16:26;5.03;;;1.65;;
79268;SDS011;68714;48.586;7.772;2023-04-15T06:18:52;3.67;;;1.42;;
79268;SDS011;68714;48.586;7.772;2023-04-15T06:21:17;2.88;;;1.83;;
79268;SDS011;68714;48.586;7.772;2023-04-15T06:23:43;4.38;;;2.05;;
79268;SDS011;68714;48.586;7.772;2023-04-15T06:26:09;4.75;;;1.85;;
79268;SDS011;68714;48.586;7.772;2023-04-15T06:28:35;3.20;;;1.77;;
79268;SDS011;68714;48.586;7.772;2023-04-15T06:31:01;5.38;;;2.00;;
79268;SDS011;68714;48.586;7.772;2023-04-15T06:33:27;4.43;;;2.28;;
79268;SDS011;68714;48.586;7.772;2023-04-15T06:35:52;4.28;;;2.45;;
79268;SDS011;68714;48.586;7.772;2023-04-15T06:38:18;4.85;;;2.22;;
79268;SDS011;68714;48.586;7.772;2023-04-15T06:40:43;5.13;;;2.60;;
79268;SDS011;68714;48.586;7.772;2023-04-15T06:43:08;5.07;;;2.70;;
79268;SDS011;68714;48.586;7.772;2023-04-15T06:45:34;4.57;;;2.38;;
79268;SDS011;68714;48.586;7.772;2023-04-15T06:47:59;3.47;;;2.17;;
79268;SDS011;68714;48.586;7.772;2023-04-15T06:50:31;5.25;;;2.38;;
79268;SDS011;68714;48.586;7.772;2023-04-15T06:52:59;5.05;;;2.03;;
79268;SDS011;68714;48.586;7.772;2023-04-15T06:55:25;3.25;;;1.95;;
79268;SDS011;68714;48.586;7.772;2023-04-15T06:57:50;4.47;;;2.25;;
79268;SDS011;68714;48.586;7.772;2023-04-15T07:00:15;5.00;;;3.00;;
79268;SDS011;68714;48.586;7.772;2023-04-15T07:02:41;3.85;;;1.85;;
79268;SDS011;68714;48.586;7.772;2023-04-15T07:05:07;4.95;;;2.72;;
79268;SDS011;68714;48.586;7.772;2023-04-15T07:07:32;4.15;;;2.38;;
79268;SDS011;68714;48.586;7.772;2023-04-15T07:09:58;3.55;;;2.08;;
79268;SDS011;68714;48.586;7.772;2023-04-15T07:12:24;10.10;;;2.75;;
79268;SDS011;68714;48.586;7.772;2023-04-15T07:14:50;3.83;;;2.05;;
79268;SDS011;68714;48.586;7.772;2023-04-15T07:17:15;3.22;;;2.10;;
79268;SDS011;68714;48.586;7.772;2023-04-15T07:19:41;3.28;;;1.83;;
79268;SDS011;68714;48.586;7.772;2023-04-15T07:22:06;4.35;;;2.10;;
79268;SDS011;68714;48.586;7.772;2023-04-15T07:24:32;4.30;;;2.00;;
79268;SDS011;68714;48.586;7.772;2023-04-15T07:26:57;5.07;;;1.75;;
79268;SDS011;68714;48.586;7.772;2023-04-15T07:29:23;4.53;;;1.83;;
79268;SDS011;68714;48.586;7.772;2023-04-15T07:31:48;2.63;;;1.50;;
79268;SDS011;68714;48.586;7.772;2023-04-15T07:34:14;4.05;;;2.00;;
79268;SDS011;68714;48.586;7.772;2023-04-15T07:36:40;3.38;;;1.52;;
79268;SDS011;68714;48.586;7.772;2023-04-15T07:39:06;3.17;;;1.52;;
79268;SDS011;68714;48.586;7.772;2023-04-15T07:41:32;2.78;;;1.50;;
79268;SDS011;68714;48.586;7.772;2023-04-15T07:43:57;3.17;;;1.95;;
79268;SDS011;68714;48.586;7.772;2023-04-15T07:46:23;3.53;;;1.80;;
79268;SDS011;68714;48.586;7.772;2023-04-15T07:48:51;3.80;;;1.90;;
79268;SDS011;68714;48.586;7.772;2023-04-15T07:51:17;2.60;;;1.52;;
79268;SDS011;68714;48.586;7.772;2023-04-15T07:53:43;4.80;;;2.05;;
79268;SDS011;68714;48.586;7.772;2023-04-15T07:56:09;4.57;;;1.73;;
79268;SDS011;68714;48.586;7.772;2023-04-15T07:58:34;4.75;;;2.05;;
79268;SDS011;68714;48.586;7.772;2023-04-15T08:01:00;5.25;;;2.38;;
79268;SDS011;68714;48.586;7.772;2023-04-15T08:03:25;3.38;;;1.75;;
79268;SDS011;68714;48.586;7.772;2023-04-15T08:05:51;5.25;;;1.90;;
79268;SDS011;68714;48.586;7.772;2023-04-15T08:08:18;2.47;;;1.20;;
79268;SDS011;68714;48.586;7.772;2023-04-15T08:10:43;6.32;;;1.85;;
79268;SDS011;68714;48.586;7.772;2023-04-15T08:13:09;5.00;;;1.80;;
79268;SDS011;68714;48.586;7.772;2023-04-15T08:15:34;3.90;;;2.08;;
79268;SDS011;68714;48.586;7.772;2023-04-15T08:18:01;3.40;;;1.80;;
79268;SDS011;68714;48.586;7.772;2023-04-15T08:20:26;3.10;;;1.80;;
79268;SDS011;68714;48.586;7.772;2023-04-15T08:22:52;3.88;;;2.10;;
79268;SDS011;68714;48.586;7.772;2023-04-15T08:25:18;4.03;;;2.40;;
79268;SDS011;68714;48.586;7.772;2023-04-15T08:27:46;3.55;;;1.88;;
79268;SDS011;68714;48.586;7.772;2023-04-15T08:30:12;5.32;;;2.47;;
79268;SDS011;68714;48.586;7.772;2023-04-15T08:32:46;3.78;;;2.20;;
79268;SDS011;68714;48.586;7.772;2023-04-15T08:35:14;3.72;;;2.10;;
79268;SDS011;68714;48.586;7.772;2023-04-15T08:37:40;3.75;;;1.90;;
79268;SDS011;68714;48.586;7.772;2023-04-15T08:40:09;4.97;;;2.20;;
79268;SDS011;68714;48.586;7.772;2023-04-15T08:42:45;6.07;;;2.00;;
79268;SDS011;68714;48.586;7.772;2023-04-15T08:45:13;5.25;;;2.00;;
79268;SDS011;68714;48.586;7.772;2023-04-15T08:47:39;4.22;;;2.38;;
79268;SDS011;68714;48.586;7.772;2023-04-15T08:50:07;2.72;;;1.75;;
79268;SDS011;68714;48.586;7.772;2023-04-15T08:52:35;4.10;;;1.80;;
79268;SDS011;68714;48.586;7.772;2023-04-15T08:55:01;3.38;;;1.38;;
79268;SDS011;68714;48.586;7.772;2023-04-15T08:57:28;3.78;;;1.85;;
79268;SDS011;68714;48.586;7.772;2023-04-15T08:59:57;4.50;;;1.45;;
79268;SDS011;68714;48.586;7.772;2023-04-15T09:02:22;2.65;;;1.60;;
79268;SDS011;68714;48.586;7.772;2023-04-15T09:04:49;4.05;;;2.20;;
79268;SDS011;68714;48.586;7.772;2023-04-15T09:07:15;3.92;;;1.90;;
79268;SDS011;68714;48.586;7.772;2023-04-15T09:09:40;5.13;;;1.98;;
79268;SDS011;68714;48.586;7.772;2023-04-15T09:12:06;4.10;;;2.10;;
79268;SDS011;68714;48.586;7.772;2023-04-15T09:14:33;3.38;;;1.60;;
79268;SDS011;68714;48.586;7.772;2023-04-15T09:16:59;3.33;;;1.50;;
79268;SDS011;68714;48.586;7.772;2023-04-15T09:19:26;3.85;;;1.85;;
79268;SDS011;68714;48.586;7.772;2023-04-15T09:21:53;3.55;;;1.65;;
79268;SDS011;68714;48.586;7.772;2023-04-15T09:24:23;5.05;;;2.00;;
79268;SDS011;68714;48.586;7.772;2023-04-15T09:26:51;3.67;;;1.83;;
79268;SDS011;68714;48.586;7.772;2023-04-15T09:31:48;3.30;;;1.55;;
79268;SDS011;68714;48.586;7.772;2023-04-15T09:34:13;2.60;;;1.58;;
79268;SDS011;68714;48.586;7.772;2023-04-15T09:39:10;4.93;;;1.98;;
79268;SDS011;68714;48.586;7.772;2023-04-15T09:41:36;3.78;;;1.55;;
79268;SDS011;68714;48.586;7.772;2023-04-15T09:44:01;2.50;;;1.52;;
79268;SDS011;68714;48.586;7.772;2023-04-15T09:46:41;4.68;;;1.70;;
79268;SDS011;68714;48.586;7.772;2023-04-15T09:49:11;2.30;;;1.25;;
79268;SDS011;68714;48.586;7.772;2023-04-15T09:51:37;3.53;;;1.58;;
79268;SDS011;68714;48.586;7.772;2023-04-15T09:54:03;5.85;;;1.90;;
79268;SDS011;68714;48.586;7.772;2023-04-15T09:56:37;6.43;;;1.73;;
79268;SDS011;68714;48.586;7.772;2023-04-15T09:59:07;4.18;;;1.73;;
79268;SDS011;68714;48.586;7.772;2023-04-15T10:01:34;2.13;;;1.15;;
79268;SDS011;68714;48.586;7.772;2023-04-15T10:04:06;3.00;;;1.45;;
79268;SDS011;68714;48.586;7.772;2023-04-15T10:06:36;2.90;;;1.42;;
79268;SDS011;68714;48.586;7.772;2023-04-15T10:09:01;4.22;;;1.63;;
79268;SDS011;68714;48.586;7.772;2023-04-15T10:11:27;3.22;;;1.20;;
79268;SDS011;68714;48.586;7.772;2023-04-15T10:13:55;4.32;;;1.27;;
79268;SDS011;68714;48.586;7.772;2023-04-15T10:16:21;3.17;;;1.40;;
79268;SDS011;68714;48.586;7.772;2023-04-15T10:18:55;4.32;;;1.48;;
79268;SDS011;68714;48.586;7.772;2023-04-15T10:21:30;3.67;;;1.65;;
79268;SDS011;68714;48.586;7.772;2023-04-15T10:24:01;4.22;;;1.30;;
79268;SDS011;68714;48.586;7.772;2023-04-15T10:26:27;3.00;;;1.48;;
79268;SDS011;68714;48.586;7.772;2023-04-15T10:28:53;3.00;;;1.40;;
79268;SDS011;68714;48.586;7.772;2023-04-15T10:31:20;1.80;;;1.00;;
79268;SDS011;68714;48.586;7.772;2023-04-15T10:33:47;2.95;;;1.20;;
79268;SDS011;68714;48.586;7.772;2023-04-15T10:36:13;2.72;;;1.10;;
79268;SDS011;68714;48.586;7.772;2023-04-15T10:38:52;4.65;;;1.10;;
79268;SDS011;68714;48.586;7.772;2023-04-15T10:41:39;2.42;;;0.98;;
79268;SDS011;68714;48.586;7.772;2023-04-15T10:44:38;2.08;;;1.00;;
79268;SDS011;68714;48.586;7.772;2023-04-15T10:47:13;3.63;;;1.25;;
79268;SDS011;68714;48.586;7.772;2023-04-15T10:49:56;2.92;;;1.33;;
79268;SDS011;68714;48.586;7.772;2023-04-15T10:52:28;3.72;;;1.55;;
79268;SDS011;68714;48.586;7.772;2023-04-15T10:57:42;2.65;;;1.20;;
79268;SDS011;68714;48.586;7.772;2023-04-15T11:00:15;3.90;;;1.35;;
79268;SDS011;68714;48.586;7.772;2023-04-15T11:02:55;1.70;;;0.90;;
79268;SDS011;68714;48.586;7.772;2023-04-15T11:08:05;3.05;;;0.93;;
79268;SDS011;68714;48.586;7.772;2023-04-15T11:12:59;2.42;;;0.90;;
79268;SDS011;68714;48.586;7.772;2023-04-15T11:15:40;3.10;;;1.40;;
79268;SDS011;68714;48.586;7.772;2023-04-15T11:18:17;6.45;;;1.42;;
79268;SDS011;68714;48.586;7.772;2023-04-15T11:20:53;3.17;;;1.10;;
79268;SDS011;68714;48.586;7.772;2023-04-15T11:25:54;4.30;;;1.40;;
79268;SDS011;68714;48.586;7.772;2023-04-15T11:33:19;1.98;;;0.75;;
79268;SDS011;68714;48.586;7.772;2023-04-15T11:35:46;3.08;;;0.88;;
79268;SDS011;68714;48.586;7.772;2023-04-15T11:38:12;3.40;;;0.93;;
79268;SDS011;68714;48.586;7.772;2023-04-15T11:40:39;1.15;;;0.70;;
79268;SDS011;68714;48.586;7.772;2023-04-15T11:43:06;1.60;;;0.75;;
79268;SDS011;68714;48.586;7.772;2023-04-15T11:45:57;2.72;;;1.00;;
79268;SDS011;68714;48.586;7.772;2023-04-15T11:50:59;2.13;;;0.90;;
79268;SDS011;68714;48.586;7.772;2023-04-15T11:53:46;3.05;;;0.98;;
79268;SDS011;68714;48.586;7.772;2023-04-15T11:56:18;1.20;;;0.60;;
79268;SDS011;68714;48.586;7.772;2023-04-15T11:58:45;2.78;;;0.90;;
79268;SDS011;68714;48.586;7.772;2023-04-15T12:01:11;3.47;;;1.05;;
79268;SDS011;68714;48.586;7.772;2023-04-15T12:03:44;5.05;;;1.13;;
79268;SDS011;68714;48.586;7.772;2023-04-15T12:11:37;1.77;;;0.93;;
79268;SDS011;68714;48.586;7.772;2023-04-15T12:17:02;3.10;;;0.98;;
79268;SDS011;68714;48.586;7.772;2023-04-15T12:19:36;3.03;;;1.23;;
79268;SDS011;68714;48.586;7.772;2023-04-15T12:22:12;3.72;;;1.20;;
79268;SDS011;68714;48.586;7.772;2023-04-15T12:24:39;1.98;;;0.80;;
79268;SDS011;68714;48.586;7.772;2023-04-15T12:27:11;3.70;;;1.17;;
79268;SDS011;68714;48.586;7.772;2023-04-15T12:29:38;3.13;;;1.10;;
79268;SDS011;68714;48.586;7.772;2023-04-15T12:32:09;1.77;;;0.70;;
79268;SDS011;68714;48.586;7.772;2023-04-15T12:34:45;2.90;;;0.70;;
79268;SDS011;68714;48.586;7.772;2023-04-15T12:37:15;2.67;;;1.02;;
79268;SDS011;68714;48.586;7.772;2023-04-15T12:39:42;2.13;;;0.90;;
79268;SDS011;68714;48.586;7.772;2023-04-15T12:42:09;2.10;;;0.80;;
79268;SDS011;68714;48.586;7.772;2023-04-15T12:44:36;2.22;;;0.88;;
79268;SDS011;68714;48.586;7.772;2023-04-15T12:47:03;3.20;;;1.00;;
79268;SDS011;68714;48.586;7.772;2023-04-15T12:49:29;2.50;;;1.02;;
79268;SDS011;68714;48.586;7.772;2023-04-15T12:51:58;2.67;;;1.08;;
79268;SDS011;68714;48.586;7.772;2023-04-15T12:54:25;2.28;;;0.90;;
79268;SDS011;68714;48.586;7.772;2023-04-15T12:56:52;2.83;;;1.33;;
79268;SDS011;68714;48.586;7.772;2023-04-15T12:59:18;2.22;;;0.90;;
79268;SDS011;68714;48.586;7.772;2023-04-15T13:01:44;3.60;;;1.00;;
79268;SDS011;68714;48.586;7.772;2023-04-15T13:04:11;3.25;;;1.10;;
79268;SDS011;68714;48.586;7.772;2023-04-15T13:06:36;2.33;;;1.00;;
79268;SDS011;68714;48.586;7.772;2023-04-15T13:09:03;2.92;;;1.02;;
79268;SDS011;68714;48.586;7.772;2023-04-15T13:11:29;2.78;;;1.38;;
79268;SDS011;68714;48.586;7.772;2023-04-15T13:13:57;2.00;;;0.90;;
79268;SDS011;68714;48.586;7.772;2023-04-15T13:16:24;1.83;;;0.93;;
79268;SDS011;68714;48.586;7.772;2023-04-15T13:18:50;1.98;;;1.00;;
79268;SDS011;68714;48.586;7.772;2023-04-15T13:21:15;2.72;;;0.90;;
79268;SDS011;68714;48.586;7.772;2023-04-15T13:23:42;2.90;;;0.98;;
79268;SDS011;68714;48.586;7.772;2023-04-15T13:26:09;1.58;;;0.80;;
79268;SDS011;68714;48.586;7.772;2023-04-15T13:28:34;2.47;;;1.10;;
79268;SDS011;68714;48.586;7.772;2023-04-15T13:31:00;2.22;;;0.80;;
79268;SDS011;68714;48.586;7.772;2023-04-15T13:33:27;3.88;;;0.98;;
79268;SDS011;68714;48.586;7.772;2023-04-15T13:35:52;3.33;;;1.20;;
79268;SDS011;68714;48.586;7.772;2023-04-15T13:38:18;2.72;;;1.02;;
79268;SDS011;68714;48.586;7.772;2023-04-15T13:40:43;2.88;;;0.85;;
79268;SDS011;68714;48.586;7.772;2023-04-15T13:43:09;1.25;;;0.70;;
79268;SDS011;68714;48.586;7.772;2023-04-15T13:45:35;2.13;;;0.85;;
79268;SDS011;68714;48.586;7.772;2023-04-15T13:48:01;2.50;;;0.88;;
79268;SDS011;68714;48.586;7.772;2023-04-15T13:50:28;2.30;;;0.95;;
79268;SDS011;68714;48.586;7.772;2023-04-15T13:52:53;2.70;;;0.95;;
79268;SDS011;68714;48.586;7.772;2023-04-15T13:55:19;2.97;;;0.90;;
79268;SDS011;68714;48.586;7.772;2023-04-15T13:57:44;6.03;;;1.60;;
79268;SDS011;68714;48.586;7.772;2023-04-15T14:00:10;3.42;;;0.93;;
79268;SDS011;68714;48.586;7.772;2023-04-15T14:02:36;2.78;;;1.27;;
79268;SDS011;68714;48.586;7.772;2023-04-15T14:05:01;2.13;;;0.80;;
79268;SDS011;68714;48.586;7.772;2023-04-15T14:07:28;3.40;;;1.27;;
79268;SDS011;68714;48.586;7.772;2023-04-15T14:09:54;2.30;;;0.90;;
79268;SDS011;68714;48.586;7.772;2023-04-15T14:12:20;2.97;;;1.10;;
79268;SDS011;68714;48.586;7.772;2023-04-15T14:14:46;4.10;;;1.45;;
79268;SDS011;68714;48.586;7.772;2023-04-15T14:17:11;4.03;;;1.25;;
79268;SDS011;68714;48.586;7.772;2023-04-15T14:19:36;3.95;;;1.10;;
79268;SDS011;68714;48.586;7.772;2023-04-15T14:22:02;3.70;;;1.20;;
79268;SDS011;68714;48.586;7.772;2023-04-15T14:24:27;2.15;;;1.38;;
79268;SDS011;68714;48.586;7.772;2023-04-15T14:26:53;2.05;;;0.95;;
79268;SDS011;68714;48.586;7.772;2023-04-15T14:29:19;1.92;;;0.88;;
79268;SDS011;68714;48.586;7.772;2023-04-15T14:31:45;2.85;;;1.10;;
79268;SDS011;68714;48.586;7.772;2023-04-15T14:34:10;2.47;;;1.13;;
79268;SDS011;68714;48.586;7.772;2023-04-15T14:36:36;2.63;;;0.90;;
79268;SDS011;68714;48.586;7.772;2023-04-15T14:39:08;2.58;;;0.85;;
79268;SDS011;68714;48.586;7.772;2023-04-15T14:41:35;1.67;;;0.93;;
79268;SDS011;68714;48.586;7.772;2023-04-15T14:44:00;2.90;;;1.13;;
79268;SDS011;68714;48.586;7.772;2023-04-15T14:46:26;5.47;;;1.30;;
79268;SDS011;68714;48.586;7.772;2023-04-15T14:48:51;2.70;;;1.25;;
79268;SDS011;68714;48.586;7.772;2023-04-15T14:51:17;3.63;;;1.20;;
79268;SDS011;68714;48.586;7.772;2023-04-15T14:53:43;2.75;;;1.27;;
79268;SDS011;68714;48.586;7.772;2023-04-15T14:56:10;2.42;;;1.13;;
79268;SDS011;68714;48.586;7.772;2023-04-15T14:58:36;2.47;;;1.08;;
79268;SDS011;68714;48.586;7.772;2023-04-15T15:01:02;1.75;;;0.90;;
79268;SDS011;68714;48.586;7.772;2023-04-15T15:03:28;4.13;;;1.10;;
79268;SDS011;68714;48.586;7.772;2023-04-15T15:05:57;3.13;;;1.15;;
79268;SDS011;68714;48.586;7.772;2023-04-15T15:08:22;3.08;;;1.20;;
79268;SDS011;68714;48.586;7.772;2023-04-15T15:10:48;5.60;;;1.30;;
79268;SDS011;68714;48.586;7.772;2023-04-15T15:13:13;3.10;;;1.13;;
79268;SDS011;68714;48.586;7.772;2023-04-15T15:15:39;5.22;;;1.60;;
79268;SDS011;68714;48.586;7.772;2023-04-15T15:18:05;4.80;;;2.00;;
79268;SDS011;68714;48.586;7.772;2023-04-15T15:20:31;3.70;;;1.20;;
79268;SDS011;68714;48.586;7.772;2023-04-15T15:22:59;2.97;;;1.40;;
79268;SDS011;68714;48.586;7.772;2023-04-15T15:25:24;3.05;;;1.15;;
79268;SDS011;68714;48.586;7.772;2023-04-15T15:27:50;4.00;;;1.20;;
79268;SDS011;68714;48.586;7.772;2023-04-15T15:30:16;7.00;;;1.33;;
79268;SDS011;68714;48.586;7.772;2023-04-15T15:32:41;2.53;;;0.90;;
79268;SDS011;68714;48.586;7.772;2023-04-15T15:35:07;2.70;;;0.90;;
79268;SDS011;68714;48.586;7.772;2023-04-15T15:37:35;2.30;;;0.98;;
79268;SDS011;68714;48.586;7.772;2023-04-15T15:40:04;1.75;;;0.88;;
79268;SDS011;68714;48.586;7.772;2023-04-15T15:42:31;3.72;;;0.90;;
79268;SDS011;68714;48.586;7.772;2023-04-15T15:44:57;3.05;;;1.10;;
79268;SDS011;68714;48.586;7.772;2023-04-15T15:47:22;2.80;;;1.00;;
79268;SDS011;68714;48.586;7.772;2023-04-15T15:49:48;3.03;;;1.17;;
79268;SDS011;68714;48.586;7.772;2023-04-15T15:52:15;3.70;;;1.02;;
79268;SDS011;68714;48.586;7.772;2023-04-15T15:54:40;2.88;;;1.10;;
79268;SDS011;68714;48.586;7.772;2023-04-15T15:57:07;2.75;;;0.95;;
79268;SDS011;68714;48.586;7.772;2023-04-15T15:59:32;1.48;;;0.70;;
79268;SDS011;68714;48.586;7.772;2023-04-15T16:01:59;1.13;;;0.68;;
79268;SDS011;68714;48.586;7.772;2023-04-15T16:04:37;2.45;;;0.90;;
79268;SDS011;68714;48.586;7.772;2023-04-15T16:07:07;1.95;;;0.80;;
79268;SDS011;68714;48.586;7.772;2023-04-15T16:09:32;1.50;;;0.80;;
79268;SDS011;68714;48.586;7.772;2023-04-15T16:11:58;2.78;;;0.80;;
79268;SDS011;68714;48.586;7.772;2023-04-15T16:14:24;4.13;;;1.13;;
79268;SDS011;68714;48.586;7.772;2023-04-15T16:16:50;2.90;;;0.90;;
79268;SDS011;68714;48.586;7.772;2023-04-15T16:19:16;3.33;;;0.80;;
79268;SDS011;68714;48.586;7.772;2023-04-15T16:21:41;2.08;;;0.90;;
79268;SDS011;68714;48.586;7.772;2023-04-15T16:24:07;4.13;;;1.08;;
79268;SDS011;68714;48.586;7.772;2023-04-15T16:26:32;4.05;;;1.02;;
79268;SDS011;68714;48.586;7.772;2023-04-15T16:28:58;2.17;;;0.80;;
79268;SDS011;68714;48.586;7.772;2023-04-15T16:31:24;3.47;;;0.80;;
79268;SDS011;68714;48.586;7.772;2023-04-15T16:33:49;1.73;;;1.20;;
79268;SDS011;68714;48.586;7.772;2023-04-15T16:36:15;2.22;;;0.80;;
79268;SDS011;68714;48.586;7.772;2023-04-15T16:38:40;3.38;;;1.05;;
79268;SDS011;68714;48.586;7.772;2023-04-15T16:41:09;2.10;;;1.03;;
79268;SDS011;68714;48.586;7.772;2023-04-15T16:43:34;2.40;;;0.80;;
79268;SDS011;68714;48.586;7.772;2023-04-15T16:46:00;1.77;;;0.75;;
79268;SDS011;68714;48.586;7.772;2023-04-15T16:48:25;1.58;;;0.63;;
79268;SDS011;68714;48.586;7.772;2023-04-15T16:50:51;3.55;;;0.75;;
79268;SDS011;68714;48.586;7.772;2023-04-15T16:53:16;2.90;;;0.80;;